createdAt,value
2018-08-27T00:00:24.994Z,25.82
2018-08-27T00:01:24.951Z,25.82
2018-08-27T00:02:24.908Z,25.90
2018-08-27T00:03:24.864Z,25.88
2018-08-27T00:04:24.825Z,25.82
2018-08-27T00:05:24.779Z,25.85
2018-08-27T00:06:24.735Z,25.87
2018-08-27T00:07:24.694Z,25.88
2018-08-27T00:08:24.649Z,25.85
2018-08-27T00:09:24.606Z,25.85
2018-08-27T00:10:24.563Z,25.85
2018-08-27T00:11:24.521Z,25.90
2018-08-27T00:12:24.476Z,25.91
2018-08-27T00:13:24.434Z,25.85
2018-08-27T00:14:24.392Z,25.92
2018-08-27T00:15:24.347Z,25.91
2018-08-27T00:16:24.306Z,25.90
2018-08-27T00:17:24.261Z,25.87
2018-08-27T00:18:24.226Z,25.88
2018-08-27T00:19:24.174Z,25.88
2018-08-27T00:20:24.131Z,25.85
2018-08-27T00:21:24.088Z,25.91
2018-08-27T00:22:24.045Z,25.83
2018-08-27T00:23:24.001Z,25.91
2018-08-27T00:24:23.959Z,25.80
2018-08-27T00:25:23.950Z,25.90
2018-08-27T00:26:23.873Z,25.90
2018-08-27T00:27:23.828Z,25.82
2018-08-27T00:28:23.786Z,25.90
2018-08-27T00:29:23.743Z,25.83
2018-08-27T00:30:23.703Z,25.91
2018-08-27T00:31:23.656Z,25.87
2018-08-27T00:32:23.613Z,25.85
2018-08-27T00:33:23.570Z,25.83
2018-08-27T00:34:23.527Z,25.85
2018-08-27T00:35:23.483Z,25.77
2018-08-27T00:36:23.440Z,25.82
2018-08-27T00:37:23.397Z,25.88
2018-08-27T00:38:23.355Z,25.77
2018-08-27T00:39:23.310Z,25.82
2018-08-27T00:40:23.270Z,25.90
2018-08-27T00:41:23.224Z,25.91
2018-08-27T00:42:23.181Z,25.85
2018-08-27T00:43:23.137Z,25.85
2018-08-27T00:44:23.095Z,25.83
2018-08-27T00:45:23.055Z,25.87
2018-08-27T00:46:23.010Z,25.83
2018-08-27T00:47:22.964Z,25.80
2018-08-27T00:48:22.921Z,25.87
2018-08-27T00:49:22.879Z,25.75
2018-08-27T00:50:22.836Z,25.76
2018-08-27T00:51:22.793Z,25.72
2018-08-27T00:52:22.751Z,25.80
2018-08-27T00:53:22.706Z,25.90
2018-08-27T00:54:22.663Z,25.83
2018-08-27T00:55:22.619Z,25.82
2018-08-27T00:56:22.576Z,25.87
2018-08-27T00:57:22.533Z,25.85
2018-08-27T00:58:22.491Z,25.85
2018-08-27T00:59:22.447Z,25.76
2018-08-27T01:00:22.403Z,25.87
2018-08-27T01:01:22.364Z,25.82
2018-08-27T01:02:22.317Z,25.72
2018-08-27T01:03:22.273Z,25.73
2018-08-27T01:04:22.231Z,25.82
2018-08-27T01:05:22.188Z,25.75
2018-08-27T01:06:22.149Z,25.88
2018-08-27T01:07:22.101Z,25.79
2018-08-27T01:08:22.108Z,25.83
2018-08-27T01:09:22.017Z,25.73
2018-08-27T01:10:21.995Z,25.83
2018-08-27T01:11:21.928Z,25.83
2018-08-27T01:12:21.885Z,25.76
2018-08-27T01:13:21.842Z,25.85
2018-08-27T01:14:21.799Z,25.72
2018-08-27T01:15:21.755Z,25.77
2018-08-27T01:16:21.712Z,25.79
2018-08-27T01:17:21.669Z,25.80
2018-08-27T01:18:21.626Z,25.79
2018-08-27T01:19:21.584Z,25.76
2018-08-27T01:20:21.539Z,25.79
2018-08-27T01:21:21.496Z,25.76
2018-08-27T01:22:21.489Z,25.75
2018-08-27T01:23:21.410Z,25.73
2018-08-27T01:24:21.373Z,25.79
2018-08-27T01:25:21.324Z,25.76
2018-08-27T01:26:21.280Z,25.72
2018-08-27T01:27:21.236Z,25.77
2018-08-27T01:28:21.194Z,25.73
2018-08-27T01:29:21.151Z,25.80
2018-08-27T01:30:21.108Z,25.73
2018-08-27T01:31:21.066Z,25.77
2018-08-27T01:32:21.026Z,25.76
2018-08-27T01:33:20.977Z,25.76
2018-08-27T01:34:20.938Z,25.73
2018-08-27T01:35:20.891Z,25.73
2018-08-27T01:36:20.848Z,25.76
2018-08-27T01:37:20.805Z,25.73
2018-08-27T01:38:20.762Z,25.76
2018-08-27T01:39:20.718Z,25.77
2018-08-27T01:40:20.678Z,25.76
2018-08-27T01:41:20.632Z,25.77
2018-08-27T01:42:20.590Z,25.76
2018-08-27T01:43:20.545Z,25.72
2018-08-27T01:44:20.545Z,25.70
2018-08-27T01:45:20.460Z,25.69
2018-08-27T01:46:20.418Z,25.73
2018-08-27T01:47:20.372Z,25.75
2018-08-27T01:48:20.329Z,25.75
2018-08-27T01:49:20.287Z,25.69
2018-08-27T01:50:20.244Z,25.70
2018-08-27T01:51:20.203Z,25.73
2018-08-27T01:52:20.157Z,25.72
2018-08-27T01:53:20.116Z,25.72
2018-08-27T01:54:20.071Z,25.75
2018-08-27T01:55:20.031Z,25.73
2018-08-27T01:56:19.985Z,25.75
2018-08-27T01:57:19.941Z,25.73
2018-08-27T01:58:19.898Z,25.69
2018-08-27T01:59:19.854Z,25.80
2018-08-27T02:00:19.811Z,25.69
2018-08-27T02:01:19.768Z,25.73
2018-08-27T02:02:19.725Z,25.73
2018-08-27T02:03:19.690Z,25.73
2018-08-27T02:04:19.638Z,25.70
2018-08-27T02:05:19.594Z,25.62
2018-08-27T02:06:19.551Z,25.65
2018-08-27T02:07:19.508Z,25.64
2018-08-27T02:08:19.465Z,25.61
2018-08-27T02:09:19.421Z,25.70
2018-08-27T02:10:19.380Z,25.64
2018-08-27T02:11:19.335Z,25.64
2018-08-27T02:12:19.292Z,25.64
2018-08-27T02:13:19.249Z,25.69
2018-08-27T02:14:19.205Z,25.62
2018-08-27T02:15:19.162Z,25.64
2018-08-27T02:16:19.119Z,25.67
2018-08-27T02:17:19.078Z,25.67
2018-08-27T02:18:19.032Z,25.67
2018-08-27T02:19:18.989Z,25.60
2018-08-27T02:20:18.945Z,25.67
2018-08-27T02:21:18.903Z,25.62
2018-08-27T02:22:18.859Z,25.67
2018-08-27T02:23:18.815Z,25.60
2018-08-27T02:24:18.772Z,25.69
2018-08-27T02:25:18.730Z,25.64
2018-08-27T02:26:18.690Z,25.62
2018-08-27T02:27:18.648Z,25.60
2018-08-27T02:28:18.599Z,25.65
2018-08-27T02:29:18.556Z,25.65
2018-08-27T02:30:18.518Z,25.60
2018-08-27T02:31:18.469Z,25.65
2018-08-27T02:32:18.433Z,25.62
2018-08-27T02:33:18.384Z,25.62
2018-08-27T02:34:18.342Z,25.61
2018-08-27T02:35:18.297Z,25.67
2018-08-27T02:36:18.257Z,25.67
2018-08-27T02:37:18.211Z,25.61
2018-08-27T02:38:18.168Z,25.61
2018-08-27T02:39:18.123Z,25.67
2018-08-27T02:40:18.080Z,25.60
2018-08-27T02:41:18.037Z,25.67
2018-08-27T02:42:17.995Z,25.64
2018-08-27T02:43:18.004Z,25.61
2018-08-27T02:44:17.910Z,25.64
2018-08-27T02:45:17.864Z,25.64
2018-08-27T02:46:17.821Z,25.61
2018-08-27T02:47:17.777Z,25.61
2018-08-27T02:48:17.734Z,25.57
2018-08-27T02:49:17.695Z,25.65
2018-08-27T02:50:17.647Z,25.54
2018-08-27T02:51:17.604Z,25.60
2018-08-27T02:52:17.562Z,25.64
2018-08-27T02:53:17.518Z,25.60
2018-08-27T02:54:17.475Z,25.55
2018-08-27T02:55:17.430Z,25.55
2018-08-27T02:56:17.387Z,25.58
2018-08-27T02:57:17.345Z,25.55
2018-08-27T02:58:17.302Z,25.57
2018-08-27T02:59:17.259Z,25.58
2018-08-27T03:00:17.214Z,25.58
2018-08-27T03:01:17.171Z,25.58
2018-08-27T03:02:17.128Z,25.61
2018-08-27T03:03:17.084Z,25.55
2018-08-27T03:04:17.041Z,25.55
2018-08-27T03:05:16.998Z,25.58
2018-08-27T03:06:16.956Z,25.52
2018-08-27T03:07:16.911Z,25.61
2018-08-27T03:08:16.867Z,25.58
2018-08-27T03:09:16.825Z,25.55
2018-08-27T03:10:16.782Z,25.55
2018-08-27T03:11:16.737Z,25.62
2018-08-27T03:12:16.745Z,25.52
2018-08-27T03:13:16.651Z,25.57
2018-08-27T03:14:16.610Z,25.50
2018-08-27T03:15:16.564Z,25.58
2018-08-27T03:16:16.521Z,25.47
2018-08-27T03:17:16.477Z,25.47
2018-08-27T03:18:16.489Z,25.58
2018-08-27T03:19:16.392Z,25.50
2018-08-27T03:20:16.347Z,25.47
2018-08-27T03:21:16.304Z,25.52
2018-08-27T03:22:16.262Z,25.55
2018-08-27T03:23:16.217Z,25.58
2018-08-27T03:24:16.174Z,25.55
2018-08-27T03:25:16.131Z,25.54
2018-08-27T03:26:16.088Z,25.50
2018-08-27T03:27:16.044Z,25.46
2018-08-27T03:28:16.002Z,25.47
2018-08-27T03:29:15.959Z,25.50
2018-08-27T03:30:15.915Z,25.52
2018-08-27T03:31:15.870Z,25.54
2018-08-27T03:32:15.827Z,25.51
2018-08-27T03:33:15.792Z,25.52
2018-08-27T03:34:15.742Z,25.52
2018-08-27T03:35:15.698Z,25.51
2018-08-27T03:36:15.654Z,25.51
2018-08-27T03:37:15.611Z,25.50
2018-08-27T03:38:15.568Z,25.50
2018-08-27T03:39:15.524Z,25.45
2018-08-27T03:40:15.484Z,25.51
2018-08-27T03:41:15.438Z,25.47
2018-08-27T03:42:15.395Z,25.50
2018-08-27T03:43:15.350Z,25.47
2018-08-27T03:44:15.307Z,25.50
2018-08-27T03:45:15.264Z,25.47
2018-08-27T03:46:15.222Z,25.43
2018-08-27T03:47:15.177Z,25.50
2018-08-27T03:48:15.136Z,25.57
2018-08-27T03:49:15.091Z,25.50
2018-08-27T03:50:15.048Z,25.46
2018-08-27T03:51:15.021Z,25.46
2018-08-27T03:52:14.962Z,25.50
2018-08-27T03:53:14.917Z,25.54
2018-08-27T03:54:14.874Z,25.51
2018-08-27T03:55:14.830Z,25.45
2018-08-27T03:56:14.788Z,25.47
2018-08-27T03:57:14.743Z,25.52
2018-08-27T03:58:14.700Z,25.57
2018-08-27T03:59:14.656Z,25.46
2018-08-27T04:00:14.616Z,25.54
2018-08-27T04:01:14.571Z,25.50
2018-08-27T04:02:14.527Z,25.57
2018-08-27T04:03:14.485Z,25.52
2018-08-27T04:04:14.439Z,25.57
2018-08-27T04:05:14.446Z,25.50
2018-08-27T04:06:14.357Z,25.57
2018-08-27T04:07:14.309Z,25.46
2018-08-27T04:08:14.266Z,25.39
2018-08-27T04:09:14.226Z,25.46
2018-08-27T04:10:14.181Z,25.54
2018-08-27T04:11:14.136Z,25.46
2018-08-27T04:12:14.093Z,25.52
2018-08-27T04:13:14.055Z,25.45
2018-08-27T04:14:14.007Z,25.54
2018-08-27T04:15:13.962Z,25.57
2018-08-27T04:16:13.920Z,25.54
2018-08-27T04:17:13.876Z,25.46
2018-08-27T04:18:13.833Z,25.52
2018-08-27T04:19:13.789Z,25.52
2018-08-27T04:20:13.746Z,25.57
2018-08-27T04:21:13.703Z,25.51
2018-08-27T04:22:13.660Z,25.43
2018-08-27T04:23:13.615Z,25.51
2018-08-27T04:24:13.572Z,25.52
2018-08-27T04:25:13.528Z,25.50
2018-08-27T04:26:13.485Z,25.50
2018-08-27T04:27:13.442Z,25.52
2018-08-27T04:28:13.398Z,25.46
2018-08-27T04:29:13.356Z,25.50
2018-08-27T04:30:13.312Z,25.45
2018-08-27T04:31:13.305Z,25.46
2018-08-27T04:32:13.225Z,25.46
2018-08-27T04:33:13.182Z,25.52
2018-08-27T04:34:13.138Z,25.52
2018-08-27T04:35:13.095Z,25.47
2018-08-27T04:36:13.051Z,25.55
2018-08-27T04:37:13.008Z,25.51
2018-08-27T04:38:12.965Z,25.57
2018-08-27T04:39:12.923Z,25.47
2018-08-27T04:40:12.878Z,25.50
2018-08-27T04:41:12.836Z,25.46
2018-08-27T04:42:12.791Z,25.46
2018-08-27T04:43:12.747Z,25.47
2018-08-27T04:44:12.704Z,25.47
2018-08-27T04:45:12.692Z,25.45
2018-08-27T04:46:12.618Z,25.57
2018-08-27T04:47:12.574Z,25.51
2018-08-27T04:48:12.535Z,25.52
2018-08-27T04:49:12.488Z,25.45
2018-08-27T04:50:12.445Z,25.50
2018-08-27T04:51:12.401Z,25.52
2018-08-27T04:52:12.358Z,25.45
2018-08-27T04:53:12.315Z,25.55
2018-08-27T04:54:12.271Z,25.50
2018-08-27T04:55:12.229Z,25.51
2018-08-27T04:56:12.186Z,25.54
2018-08-27T04:57:12.141Z,25.50
2018-08-27T04:58:12.098Z,25.50
2018-08-27T04:59:12.054Z,25.50
2018-08-27T05:00:12.011Z,25.52
2018-08-27T05:01:11.968Z,25.57
2018-08-27T05:02:11.926Z,25.58
2018-08-27T05:03:11.880Z,25.50
2018-08-27T05:04:11.843Z,25.60
2018-08-27T05:05:11.795Z,25.52
2018-08-27T05:06:11.751Z,25.52
2018-08-27T05:07:11.711Z,25.52
2018-08-27T05:08:11.666Z,25.50
2018-08-27T05:09:11.621Z,25.50
2018-08-27T05:10:11.578Z,25.50
2018-08-27T05:11:11.533Z,25.50
2018-08-27T05:12:11.491Z,25.50
2018-08-27T05:13:11.540Z,25.51
2018-08-27T05:14:11.404Z,25.50
2018-08-27T05:15:11.360Z,25.51
2018-08-27T05:16:11.317Z,25.52
2018-08-27T05:17:11.274Z,25.54
2018-08-27T05:18:11.230Z,25.50
2018-08-27T05:19:11.401Z,25.51
2018-08-27T05:20:11.144Z,25.50
2018-08-27T05:21:11.100Z,25.52
2018-08-27T05:22:11.057Z,25.52
2018-08-27T05:23:11.013Z,25.50
2018-08-27T05:24:10.970Z,25.57
2018-08-27T05:25:10.927Z,25.46
2018-08-27T05:26:10.884Z,25.50
2018-08-27T05:27:10.839Z,25.50
2018-08-27T05:28:10.796Z,25.46
2018-08-27T05:29:10.753Z,25.47
2018-08-27T05:30:10.710Z,25.47
2018-08-27T05:31:10.675Z,25.51
2018-08-27T05:32:10.623Z,25.50
2018-08-27T05:33:10.579Z,25.52
2018-08-27T05:34:10.537Z,25.42
2018-08-27T05:35:10.492Z,25.50
2018-08-27T05:36:10.449Z,25.51
2018-08-27T05:37:10.404Z,25.54
2018-08-27T05:38:10.431Z,25.51
2018-08-27T05:39:10.318Z,25.52
2018-08-27T05:40:10.275Z,25.52
2018-08-27T05:41:10.236Z,25.62
2018-08-27T05:42:10.189Z,25.57
2018-08-27T05:43:10.145Z,25.62
2018-08-27T05:44:10.101Z,25.62
2018-08-27T05:45:10.058Z,25.82
2018-08-27T05:46:10.018Z,25.83
2018-08-27T05:47:10.021Z,25.87
2018-08-27T05:48:09.931Z,25.90
2018-08-27T05:49:09.885Z,25.83
2018-08-27T05:50:09.842Z,25.88
2018-08-27T05:51:09.803Z,25.90
2018-08-27T05:52:09.762Z,26.02
2018-08-27T05:53:09.711Z,26.01
2018-08-27T05:54:09.669Z,25.90
2018-08-27T05:55:09.633Z,25.62
2018-08-27T05:56:09.581Z,25.42
2018-08-27T05:57:09.538Z,25.05
2018-08-27T05:58:09.496Z,24.93
2018-08-27T05:59:09.451Z,24.81
2018-08-27T06:00:09.408Z,24.84
2018-08-27T06:01:09.364Z,24.67
2018-08-27T06:02:09.321Z,24.46
2018-08-27T06:03:09.277Z,24.40
2018-08-27T06:04:09.234Z,24.28
2018-08-27T06:05:09.191Z,24.08
2018-08-27T06:06:09.147Z,23.97
2018-08-27T06:07:09.102Z,23.83
2018-08-27T06:08:09.078Z,23.75
2018-08-27T06:09:09.117Z,23.73
2018-08-27T06:10:09.021Z,23.72
2018-08-27T06:11:09.022Z,23.73
2018-08-27T06:12:08.884Z,23.70
2018-08-27T06:13:08.840Z,23.58
2018-08-27T06:14:08.796Z,23.57
2018-08-27T06:15:08.751Z,23.57
2018-08-27T06:16:08.716Z,23.42
2018-08-27T06:17:08.691Z,23.31
2018-08-27T06:18:08.620Z,23.22
2018-08-27T06:19:08.576Z,23.16
2018-08-27T06:20:08.531Z,23.12
2018-08-27T06:21:08.488Z,23.09
2018-08-27T06:22:08.613Z,22.92
2018-08-27T06:23:08.399Z,22.94
2018-08-27T06:24:08.354Z,22.83
2018-08-27T06:25:08.424Z,22.90
2018-08-27T06:26:08.268Z,22.80
2018-08-27T06:27:08.224Z,22.80
2018-08-27T06:28:08.177Z,22.94
2018-08-27T06:29:08.133Z,23.04
2018-08-27T06:30:08.090Z,23.32
2018-08-27T06:31:08.045Z,23.54
2018-08-27T06:32:08.000Z,23.91
2018-08-27T06:33:07.957Z,24.40
2018-08-27T06:34:07.913Z,24.80
2018-08-27T06:35:07.898Z,25.32
2018-08-27T06:36:07.825Z,25.75
2018-08-27T06:37:07.781Z,26.25
2018-08-27T06:38:07.859Z,26.52
2018-08-27T06:39:07.699Z,26.87
2018-08-27T06:40:07.659Z,27.31
2018-08-27T06:41:07.608Z,27.59
2018-08-27T06:42:07.566Z,27.94
2018-08-27T06:43:07.521Z,28.09
2018-08-27T06:44:07.478Z,28.33
2018-08-27T06:45:07.436Z,28.36
2018-08-27T06:46:07.405Z,28.55
2018-08-27T06:47:07.400Z,28.74
2018-08-27T06:48:07.308Z,28.88
2018-08-27T06:49:07.266Z,28.90
2018-08-27T06:50:07.224Z,29.00
2018-08-27T06:51:07.184Z,29.00
2018-08-27T06:52:07.140Z,28.93
2018-08-27T06:53:07.098Z,28.89
2018-08-27T06:54:07.056Z,28.98
2018-08-27T06:55:07.014Z,29.08
2018-08-27T06:56:06.972Z,29.04
2018-08-27T06:57:06.930Z,29.15
2018-08-27T06:58:06.991Z,29.18
2018-08-27T06:59:06.849Z,29.23
2018-08-27T07:00:06.806Z,29.41
2018-08-27T07:01:06.765Z,29.51
2018-08-27T07:02:06.773Z,29.57
2018-08-27T07:03:06.682Z,29.58
2018-08-27T07:04:06.641Z,29.55
2018-08-27T07:05:06.600Z,29.43
2018-08-27T07:06:06.560Z,29.31
2018-08-27T07:07:06.518Z,29.23
2018-08-27T07:08:06.478Z,28.96
2018-08-27T07:09:06.437Z,28.88
2018-08-27T07:10:06.397Z,28.61
2018-08-27T07:11:06.408Z,28.41
2018-08-27T07:12:06.316Z,28.24
2018-08-27T07:13:06.278Z,28.07
2018-08-27T07:14:06.236Z,27.77
2018-08-27T07:15:06.198Z,27.51
2018-08-27T07:16:06.152Z,27.31
2018-08-27T07:17:06.112Z,27.14
2018-08-27T07:18:06.073Z,26.95
2018-08-27T07:19:06.029Z,26.76
2018-08-27T07:20:06.028Z,26.66
2018-08-27T07:21:05.947Z,26.52
2018-08-27T07:22:05.906Z,26.45
2018-08-27T07:23:05.866Z,26.40
2018-08-27T07:24:05.823Z,26.33
2018-08-27T07:25:05.784Z,26.25
2018-08-27T07:26:05.743Z,26.10
2018-08-27T07:27:05.698Z,25.95
2018-08-27T07:28:05.664Z,25.79
2018-08-27T07:29:05.615Z,25.82
2018-08-27T07:30:05.574Z,25.77
2018-08-27T07:31:05.531Z,25.64
2018-08-27T07:32:05.489Z,25.47
2018-08-27T07:33:05.452Z,25.46
2018-08-27T07:34:05.405Z,25.40
2018-08-27T07:35:05.362Z,25.33
2018-08-27T07:36:05.387Z,25.21
2018-08-27T07:37:05.278Z,25.17
2018-08-27T07:38:05.236Z,25.18
2018-08-27T07:39:05.193Z,25.25
2018-08-27T07:40:05.149Z,25.09
2018-08-27T07:41:05.108Z,25.14
2018-08-27T07:42:05.066Z,25.17
2018-08-27T07:43:05.022Z,25.13
2018-08-27T07:44:04.980Z,25.05
2018-08-27T07:45:04.936Z,25.09
2018-08-27T07:46:04.895Z,25.06
2018-08-27T07:47:04.852Z,25.05
2018-08-27T07:48:04.809Z,25.02
2018-08-27T07:49:04.767Z,25.05
2018-08-27T07:50:04.725Z,25.08
2018-08-27T07:51:04.684Z,25.28
2018-08-27T07:52:04.693Z,25.35
2018-08-27T07:53:04.597Z,25.38
2018-08-27T07:54:04.555Z,25.36
2018-08-27T07:55:04.512Z,25.33
2018-08-27T07:56:04.470Z,25.23
2018-08-27T07:57:04.428Z,25.32
2018-08-27T07:58:04.387Z,25.25
2018-08-27T07:59:04.344Z,25.43
2018-08-27T08:00:04.302Z,25.38
2018-08-27T08:01:04.262Z,25.30
2018-08-27T08:02:04.218Z,25.28
2018-08-27T08:03:04.179Z,25.24
2018-08-27T08:04:04.135Z,25.17
2018-08-27T08:05:04.092Z,25.17
2018-08-27T08:06:04.051Z,25.25
2018-08-27T08:07:04.016Z,25.27
2018-08-27T08:08:03.965Z,25.23
2018-08-27T08:09:03.924Z,25.23
2018-08-27T08:10:03.887Z,25.20
2018-08-27T08:11:03.846Z,25.09
2018-08-27T08:12:03.798Z,25.06
2018-08-27T08:13:03.756Z,25.00
2018-08-27T08:14:03.714Z,24.96
2018-08-27T08:15:03.671Z,24.88
2018-08-27T08:16:03.632Z,24.84
2018-08-27T08:17:03.589Z,24.77
2018-08-27T08:18:03.547Z,24.91
2018-08-27T08:19:03.504Z,24.90
2018-08-27T08:20:03.464Z,24.95
2018-08-27T08:21:03.422Z,24.98
2018-08-27T08:22:03.381Z,24.98
2018-08-27T08:23:03.339Z,25.10
2018-08-27T08:24:03.298Z,25.13
2018-08-27T08:25:03.258Z,24.98
2018-08-27T08:26:03.217Z,25.03
2018-08-27T08:27:03.177Z,24.98
2018-08-27T08:28:03.139Z,24.93
2018-08-27T08:29:03.101Z,24.96
2018-08-27T08:30:03.056Z,24.93
2018-08-27T08:31:03.013Z,24.85
2018-08-27T08:32:02.976Z,24.80
2018-08-27T08:33:02.945Z,24.69
2018-08-27T08:34:02.893Z,24.69
2018-08-27T08:35:02.851Z,24.73
2018-08-27T08:36:02.812Z,24.68
2018-08-27T08:37:02.775Z,24.76
2018-08-27T08:38:02.732Z,24.76
2018-08-27T08:39:02.690Z,24.77
2018-08-27T08:40:02.748Z,24.71
2018-08-27T08:41:02.612Z,24.76
2018-08-27T08:42:02.569Z,24.78
2018-08-27T08:43:02.527Z,24.84
2018-08-27T08:44:02.486Z,24.77
2018-08-27T08:45:02.445Z,24.71
2018-08-27T08:46:02.406Z,24.73
2018-08-27T08:47:02.362Z,24.73
2018-08-27T08:48:02.321Z,24.73
2018-08-27T08:49:02.280Z,24.77
2018-08-27T08:50:02.239Z,24.68
2018-08-27T08:51:02.197Z,24.76
2018-08-27T08:52:02.156Z,24.81
2018-08-27T08:53:02.114Z,24.68
2018-08-27T08:54:02.073Z,24.78
2018-08-27T08:55:02.031Z,24.77
2018-08-27T08:56:01.994Z,24.77
2018-08-27T08:57:01.948Z,24.83
2018-08-27T08:58:01.906Z,24.76
2018-08-27T08:59:01.865Z,24.85
2018-08-27T09:00:01.828Z,24.87
2018-08-27T09:01:01.788Z,24.84
2018-08-27T09:02:01.742Z,24.85
2018-08-27T09:03:01.703Z,24.83
2018-08-27T09:04:01.663Z,24.81
2018-08-27T09:05:01.622Z,24.80
2018-08-27T09:06:01.578Z,24.78
2018-08-27T09:07:01.537Z,24.78
2018-08-27T09:08:01.554Z,24.76
2018-08-27T09:09:01.543Z,24.77
2018-08-27T09:10:01.413Z,24.69
2018-08-27T09:11:01.369Z,24.65
2018-08-27T09:12:01.331Z,24.65
2018-08-27T09:13:01.290Z,24.69
2018-08-27T09:14:01.246Z,24.68
2018-08-27T09:15:01.202Z,24.64
2018-08-27T09:16:01.162Z,24.62
2018-08-27T09:17:01.196Z,24.61
2018-08-27T09:18:01.076Z,24.60
2018-08-27T09:19:01.033Z,24.60
2018-08-27T09:20:00.991Z,24.58
2018-08-27T09:21:00.948Z,24.50
2018-08-27T09:22:00.906Z,24.55
2018-08-27T09:23:00.863Z,24.55
2018-08-27T09:24:00.820Z,24.46
2018-08-27T09:25:00.778Z,24.53
2018-08-27T09:26:00.735Z,24.52
2018-08-27T09:27:00.692Z,24.40
2018-08-27T09:28:00.649Z,24.45
2018-08-27T09:29:00.607Z,24.42
2018-08-27T09:30:00.563Z,24.43
2018-08-27T09:31:00.519Z,24.47
2018-08-27T09:32:00.476Z,24.45
2018-08-27T09:33:00.467Z,24.43
2018-08-27T09:34:00.392Z,24.43
2018-08-27T09:35:00.347Z,24.46
2018-08-27T09:36:00.304Z,24.40
2018-08-27T09:37:00.316Z,24.31
2018-08-27T09:38:00.218Z,24.43
2018-08-27T09:39:00.173Z,24.27
2018-08-27T09:40:00.132Z,24.32
2018-08-27T09:41:00.087Z,24.30
2018-08-27T09:42:00.044Z,24.43
2018-08-27T09:43:00.000Z,24.32
2018-08-27T09:43:59.984Z,24.37
2018-08-27T09:44:59.912Z,24.28
2018-08-27T09:45:59.945Z,24.28
2018-08-27T09:46:59.870Z,24.28
2018-08-27T09:47:59.783Z,24.31
2018-08-27T09:48:59.742Z,24.25
2018-08-27T09:49:59.696Z,24.22
2018-08-27T09:50:59.651Z,24.21
2018-08-27T09:51:59.608Z,24.15
2018-08-27T09:52:59.588Z,24.12
2018-08-27T09:53:59.521Z,24.21
2018-08-27T09:54:59.477Z,24.24
2018-08-27T09:55:59.433Z,24.21
2018-08-27T09:56:59.392Z,24.25
2018-08-27T09:57:59.348Z,24.30
2018-08-27T09:58:59.356Z,24.25
2018-08-27T09:59:59.259Z,24.30
2018-08-27T10:00:59.227Z,24.25
2018-08-27T10:01:59.175Z,24.28
2018-08-27T10:02:59.127Z,24.27
2018-08-27T10:03:59.084Z,24.28
2018-08-27T10:04:59.041Z,24.25
2018-08-27T10:05:58.998Z,24.28
2018-08-27T10:06:58.962Z,24.28
2018-08-27T10:07:58.910Z,24.25
2018-08-27T10:08:58.923Z,24.27
2018-08-27T10:09:58.822Z,24.25
2018-08-27T10:10:58.778Z,24.32
2018-08-27T10:11:58.734Z,24.30
2018-08-27T10:12:58.693Z,24.28
2018-08-27T10:13:58.648Z,24.25
2018-08-27T10:14:58.662Z,24.27
2018-08-27T10:15:58.560Z,24.25
2018-08-27T10:16:58.516Z,24.22
2018-08-27T10:17:58.473Z,24.21
2018-08-27T10:18:58.428Z,24.28
2018-08-27T10:19:58.392Z,24.31
2018-08-27T10:20:58.342Z,24.27
2018-08-27T10:21:58.298Z,24.35
2018-08-27T10:22:58.254Z,24.40
2018-08-27T10:23:58.210Z,24.31
2018-08-27T10:24:58.166Z,24.31
2018-08-27T10:25:58.123Z,24.31
2018-08-27T10:26:58.128Z,24.27
2018-08-27T10:27:58.036Z,24.30
2018-08-27T10:28:57.991Z,24.32
2018-08-27T10:29:57.958Z,24.25
2018-08-27T10:30:57.905Z,24.27
2018-08-27T10:31:57.860Z,24.28
2018-08-27T10:32:57.817Z,24.24
2018-08-27T10:33:57.777Z,24.28
2018-08-27T10:34:57.729Z,24.24
2018-08-27T10:35:57.686Z,24.25
2018-08-27T10:36:57.643Z,24.21
2018-08-27T10:37:57.602Z,24.22
2018-08-27T10:38:57.554Z,24.21
2018-08-27T10:39:57.510Z,24.22
2018-08-27T10:40:57.467Z,24.25
2018-08-27T10:41:57.423Z,24.25
2018-08-27T10:42:57.444Z,24.27
2018-08-27T10:43:57.334Z,24.30
2018-08-27T10:44:57.291Z,24.30
2018-08-27T10:45:57.251Z,24.34
2018-08-27T10:46:57.209Z,24.39
2018-08-27T10:47:57.163Z,24.35
2018-08-27T10:48:57.117Z,24.28
2018-08-27T10:49:57.073Z,24.31
2018-08-27T10:50:57.029Z,24.27
2018-08-27T10:51:56.985Z,24.24
2018-08-27T10:52:56.941Z,24.31
2018-08-27T10:53:56.898Z,24.21
2018-08-27T10:54:56.854Z,24.24
2018-08-27T10:55:56.810Z,24.24
2018-08-27T10:56:56.766Z,24.21
2018-08-27T10:57:56.727Z,24.12
2018-08-27T10:58:56.682Z,24.24
2018-08-27T10:59:56.635Z,24.21
2018-08-27T11:00:56.597Z,24.25
2018-08-27T11:01:56.553Z,24.27
2018-08-27T11:02:56.511Z,24.25
2018-08-27T11:03:56.460Z,24.27
2018-08-27T11:04:56.416Z,24.21
2018-08-27T11:05:56.373Z,24.30
2018-08-27T11:06:56.328Z,24.27
2018-08-27T11:07:56.285Z,24.25
2018-08-27T11:08:56.242Z,24.25
2018-08-27T11:09:56.198Z,24.27
2018-08-27T11:10:56.154Z,24.28
2018-08-27T11:11:56.110Z,24.25
2018-08-27T11:12:56.067Z,24.30
2018-08-27T11:13:56.050Z,24.27
2018-08-27T11:14:55.983Z,24.27
2018-08-27T11:15:55.950Z,24.30
2018-08-27T11:16:55.894Z,24.27
2018-08-27T11:17:55.847Z,24.30
2018-08-27T11:18:55.803Z,24.27
2018-08-27T11:19:55.825Z,24.28
2018-08-27T11:20:55.716Z,24.20
2018-08-27T11:21:55.672Z,24.22
2018-08-27T11:22:55.628Z,24.22
2018-08-27T11:23:55.584Z,24.27
2018-08-27T11:24:55.540Z,24.30
2018-08-27T11:25:55.497Z,24.16
2018-08-27T11:26:55.454Z,24.21
2018-08-27T11:27:55.408Z,24.24
2018-08-27T11:28:55.365Z,24.25
2018-08-27T11:29:55.327Z,24.27
2018-08-27T11:30:55.277Z,24.25
2018-08-27T11:31:55.233Z,24.24
2018-08-27T11:32:55.278Z,24.24
2018-08-27T11:33:55.146Z,24.25
2018-08-27T11:34:55.153Z,24.24
2018-08-27T11:35:55.102Z,24.31
2018-08-27T11:36:55.014Z,24.31
2018-08-27T11:37:54.970Z,24.27
2018-08-27T11:38:54.926Z,24.27
2018-08-27T11:39:54.884Z,24.27
2018-08-27T11:40:54.838Z,24.25
2018-08-27T11:41:54.794Z,24.31
2018-08-27T11:42:54.749Z,24.25
2018-08-27T11:43:54.707Z,24.39
2018-08-27T11:44:54.663Z,24.40
2018-08-27T11:45:54.620Z,24.37
2018-08-27T11:46:54.573Z,24.37
2018-08-27T11:47:54.531Z,24.42
2018-08-27T11:48:54.487Z,24.45
2018-08-27T11:49:54.446Z,24.39
2018-08-27T11:50:54.597Z,24.42
2018-08-27T11:51:54.355Z,24.52
2018-08-27T11:52:54.312Z,24.47
2018-08-27T11:53:54.269Z,24.45
2018-08-27T11:54:54.251Z,24.42
2018-08-27T11:55:54.183Z,24.45
2018-08-27T11:56:54.141Z,24.46
2018-08-27T11:57:54.094Z,24.40
2018-08-27T11:58:54.050Z,24.40
2018-08-27T11:59:54.006Z,24.50
2018-08-27T12:00:53.962Z,24.42
2018-08-27T12:01:53.967Z,24.49
2018-08-27T12:02:53.874Z,24.53
2018-08-27T12:03:53.830Z,24.55
2018-08-27T12:04:53.787Z,24.64
2018-08-27T12:05:53.742Z,24.67
2018-08-27T12:06:53.699Z,24.69
2018-08-27T12:07:53.655Z,24.68
2018-08-27T12:08:53.648Z,24.76
2018-08-27T12:09:53.568Z,24.71
2018-08-27T12:10:53.524Z,24.65
2018-08-27T12:11:53.480Z,24.65
2018-08-27T12:12:53.437Z,24.67
2018-08-27T12:13:53.393Z,24.77
2018-08-27T12:14:53.351Z,24.81
2018-08-27T12:15:53.310Z,24.80
2018-08-27T12:16:53.309Z,24.90
2018-08-27T12:17:53.218Z,24.85
2018-08-27T12:18:53.173Z,24.83
2018-08-27T12:19:53.135Z,24.85
2018-08-27T12:20:53.086Z,24.88
2018-08-27T12:21:53.043Z,24.93
2018-08-27T12:22:53.003Z,24.88
2018-08-27T12:23:53.051Z,24.81
2018-08-27T12:24:52.911Z,24.87
2018-08-27T12:25:52.869Z,24.96
2018-08-27T12:26:52.823Z,25.00
2018-08-27T12:27:52.780Z,24.98
2018-08-27T12:28:52.735Z,24.87
2018-08-27T12:29:52.694Z,25.00
2018-08-27T12:30:52.683Z,25.02
2018-08-27T12:31:52.605Z,24.98
2018-08-27T12:32:52.566Z,24.91
2018-08-27T12:33:52.519Z,24.96
2018-08-27T12:34:52.473Z,25.02
2018-08-27T12:35:52.429Z,25.02
2018-08-27T12:36:52.386Z,24.93
2018-08-27T12:37:52.434Z,24.96
2018-08-27T12:38:52.298Z,25.05
2018-08-27T12:39:52.260Z,24.96
2018-08-27T12:40:52.221Z,24.96
2018-08-27T12:41:52.172Z,25.03
2018-08-27T12:42:52.125Z,25.06
2018-08-27T12:43:52.080Z,25.02
2018-08-27T12:44:52.036Z,25.02
2018-08-27T12:45:51.996Z,25.03
2018-08-27T12:46:51.947Z,25.02
2018-08-27T12:47:51.905Z,25.00
2018-08-27T12:48:51.862Z,24.98
2018-08-27T12:49:51.819Z,25.08
2018-08-27T12:50:51.791Z,25.03
2018-08-27T12:51:51.730Z,25.03